Terminal Aerodrome Forecast
Issued by NWS

Home | Current Version | Previous Version | Graphics & Text | Print | Product List | Glossary On
Versions: 1 2 3 4 5 6 7 8 9 10 11 12 13 14 15 16 17
000
FTUS42 KMHX 231743
TAFPGV
TAF
KPGV 231743Z 2318/2418 11014G24KT P6SM VCSH BKN045
     FM240500 10014G22KT 6SM RA OVC030
     FM241000 10014G22KT 4SM RA OVC008
     FM241300 10015G26KT 2SM +SHRA OVC008
      AMD LTD TO CLD VIS AND WIND=

USA.gov is the U.S. government's official web portal to all federal, state and local government web resources and services.